Terminal Aerodrome Forecast
Issued by NWS

Home | Current Version | Previous Version | Graphics & Text | Print | Product List | Glossary On
Versions: 1 2 3 4 5 6 7 8 9 10 11 12 13 14 15 16 17 18 19 20 21 22 23
000
FTUS43 KTOP 251100 AAA
TAFMHK
TAF AMD
KMHK 251145Z 2512/2612 VRB02KT 1/4SM FG VV001
      TEMPO 2512/2514 3SM BR BCFG SKC
     FM251500 08005KT P6SM SKC=

USA.gov is the U.S. government's official web portal to all federal, state and local government web resources and services.